TAM4728 SBGR-SBRP
Flight info
| Callsign | TAM4728 |
|---|---|
| Flight time | 0h 39m |
| Altitude | 29000 |
| Route | GERTU UZ25 KOMTO |
| Aircraft | A319/M-SDE3FGHIRWY/LB1 |
Departure
| Time | 2026-05-06 03:06 |
|---|---|
| Airport | São Paulo/Guarulhos–Governor André Franco Montoro International Airport (SBGR) |
Arrival
| Time | 2026-05-06 03:46 |
|---|---|
| Airport | Leite Lopes Airport (SBRP) |
| Time | Latitude | Longitude | Altitude | Speed | Heading |
|---|---|---|---|---|---|
| 2026-05-06 02:34 | -23.42905 | -46.48578 | 2465 ft | 0 kts | 320° |
| 2026-05-06 02:59 | -23.42921 | -46.48564 | 2465 ft | 4 kts | 320° |
| 2026-05-06 02:59 | -23.42937 | -46.48550 | 2467 ft | 4 kts | 323° |
| 2026-05-06 02:59 | -23.42957 | -46.48539 | 2469 ft | 4 kts | 4° |
| 2026-05-06 03:00 | -23.42977 | -46.48548 | 2465 ft | 4 kts | 50° |
| 2026-05-06 03:00 | -23.42988 | -46.48570 | 2468 ft | 4 kts | 80° |
| 2026-05-06 03:00 | -23.42990 | -46.48584 | 2466 ft | 0 kts | 96° |
| 2026-05-06 03:03 | -23.42990 | -46.48583 | 2492 ft | 0 kts | 96° |
| 2026-05-06 03:03 | -23.42991 | -46.48570 | 2465 ft | 3 kts | 96° |
| 2026-05-06 03:03 | -23.42994 | -46.48535 | 2465 ft | 6 kts | 96° |
| 2026-05-06 03:03 | -23.43001 | -46.48475 | 2465 ft | 8 kts | 99° |
| 2026-05-06 03:04 | -23.43047 | -46.48443 | 2465 ft | 9 kts | 167° |
| 2026-05-06 03:04 | -23.43112 | -46.48424 | 2466 ft | 10 kts | 164° |
| 2026-05-06 03:04 | -23.43185 | -46.48401 | 2466 ft | 11 kts | 164° |
| 2026-05-06 03:04 | -23.43259 | -46.48378 | 2471 ft | 11 kts | 164° |
| 2026-05-06 03:05 | -23.43341 | -46.48352 | 2466 ft | 15 kts | 164° |
| 2026-05-06 03:05 | -23.43417 | -46.48308 | 2461 ft | 9 kts | 116° |
| 2026-05-06 03:05 | -23.43402 | -46.48236 | 2463 ft | 12 kts | 73° |
| 2026-05-06 03:05 | -23.43340 | -46.48006 | 2466 ft | 57 kts | 73° |
| 2026-05-06 03:06 | -23.43176 | -46.47396 | 2459 ft | 110 kts | 73° |
| 2026-05-06 03:06 | -23.42911 | -46.46420 | 2468 ft | 158 kts | 73° |
| 2026-05-06 03:06 | -23.42694 | -46.45616 | 2685 ft | 169 kts | 73° |
| 2026-05-06 03:06 | -23.42223 | -46.43967 | 3556 ft | 172 kts | 72° |
| 2026-05-06 03:07 | -23.41843 | -46.42674 | 3967 ft | 189 kts | 72° |
| 2026-05-06 03:07 | -23.41566 | -46.41733 | 4146 ft | 206 kts | 72° |
| 2026-05-06 03:07 | -23.41104 | -46.40160 | 4535 ft | 230 kts | 72° |
| 2026-05-06 03:07 | -23.40593 | -46.38412 | 5006 ft | 254 kts | 73° |
| 2026-05-06 03:08 | -23.40030 | -46.36544 | 5761 ft | 264 kts | 69° |
| 2026-05-06 03:08 | -23.39130 | -46.34771 | 6653 ft | 270 kts | 58° |
| 2026-05-06 03:08 | -23.38117 | -46.33031 | 7531 ft | 274 kts | 58° |
| 2026-05-06 03:08 | -23.37089 | -46.31265 | 8398 ft | 279 kts | 58° |
| 2026-05-06 03:09 | -23.36044 | -46.29467 | 9253 ft | 284 kts | 58° |
| 2026-05-06 03:09 | -23.34981 | -46.27635 | 10101 ft | 289 kts | 58° |
| 2026-05-06 03:09 | -23.33902 | -46.25773 | 10863 ft | 293 kts | 58° |
| 2026-05-06 03:09 | -23.32807 | -46.23879 | 11619 ft | 298 kts | 58° |
| 2026-05-06 03:10 | -23.31695 | -46.21958 | 12371 ft | 302 kts | 58° |
| 2026-05-06 03:10 | -23.30565 | -46.20006 | 13116 ft | 307 kts | 59° |
| 2026-05-06 03:10 | -23.29417 | -46.18029 | 13862 ft | 311 kts | 59° |
| 2026-05-06 03:10 | -23.28252 | -46.16028 | 14527 ft | 315 kts | 59° |
| 2026-05-06 03:11 | -23.27072 | -46.14005 | 15165 ft | 319 kts | 59° |
| 2026-05-06 03:11 | -23.25894 | -46.11977 | 15787 ft | 323 kts | 59° |
| 2026-05-06 03:11 | -23.24671 | -46.09869 | 16420 ft | 327 kts | 59° |
| 2026-05-06 03:11 | -23.23449 | -46.07760 | 17036 ft | 331 kts | 58° |
| 2026-05-06 03:12 | -23.22214 | -46.05667 | 17639 ft | 336 kts | 55° |
| 2026-05-06 03:12 | -23.20537 | -46.03893 | 18215 ft | 341 kts | 32° |
| 2026-05-06 03:12 | -23.18362 | -46.02844 | 18767 ft | 345 kts | 19° |
| 2026-05-06 03:12 | -23.16088 | -46.01977 | 19319 ft | 348 kts | 18° |
| 2026-05-06 03:13 | -23.13709 | -46.01522 | 19825 ft | 350 kts | 355° |
| 2026-05-06 03:13 | -23.11383 | -46.02243 | 20339 ft | 351 kts | 328° |
| 2026-05-06 03:13 | -23.09501 | -46.03913 | 20866 ft | 351 kts | 312° |
| 2026-05-06 03:13 | -23.07888 | -46.05912 | 21428 ft | 353 kts | 306° |
| 2026-05-06 03:14 | -23.06401 | -46.08040 | 21974 ft | 355 kts | 304° |
| 2026-05-06 03:14 | -23.04937 | -46.10208 | 22510 ft | 357 kts | 304° |
| 2026-05-06 03:14 | -23.03439 | -46.12376 | 23054 ft | 360 kts | 305° |
| 2026-05-06 03:14 | -23.01889 | -46.14529 | 23594 ft | 363 kts | 306° |
| 2026-05-06 03:15 | -23.00289 | -46.16669 | 24091 ft | 366 kts | 307° |
| 2026-05-06 03:15 | -22.98656 | -46.18801 | 24542 ft | 369 kts | 307° |
| 2026-05-06 03:15 | -22.96995 | -46.20944 | 24989 ft | 372 kts | 307° |
| 2026-05-06 03:15 | -22.95322 | -46.23097 | 25450 ft | 375 kts | 307° |
| 2026-05-06 03:16 | -22.93638 | -46.25267 | 25894 ft | 378 kts | 306° |
| 2026-05-06 03:16 | -22.91942 | -46.27457 | 26347 ft | 380 kts | 306° |
| 2026-05-06 03:16 | -22.90256 | -46.29679 | 26803 ft | 382 kts | 302° |
| 2026-05-06 03:16 | -22.88974 | -46.32173 | 27270 ft | 379 kts | 291° |
| 2026-05-06 03:17 | -22.87818 | -46.34752 | 27729 ft | 381 kts | 291° |
| 2026-05-06 03:17 | -22.86666 | -46.37348 | 28188 ft | 383 kts | 290° |
| 2026-05-06 03:17 | -22.85512 | -46.39961 | 28683 ft | 385 kts | 290° |
| 2026-05-06 03:17 | -22.84350 | -46.42586 | 29119 ft | 388 kts | 290° |
| 2026-05-06 03:18 | -22.83178 | -46.45224 | 29233 ft | 391 kts | 290° |
| 2026-05-06 03:18 | -22.81978 | -46.47926 | 29255 ft | 404 kts | 290° |
| 2026-05-06 03:18 | -22.80738 | -46.50717 | 29242 ft | 418 kts | 290° |
| 2026-05-06 03:18 | -22.79459 | -46.53595 | 29246 ft | 430 kts | 290° |
| 2026-05-06 03:19 | -22.78141 | -46.56554 | 29245 ft | 442 kts | 291° |
| 2026-05-06 03:19 | -22.75414 | -46.62642 | 29234 ft | 453 kts | 291° |
| 2026-05-06 03:20 | -22.71259 | -46.71860 | 29229 ft | 454 kts | 291° |
| 2026-05-06 03:20 | -22.68494 | -46.78012 | 29220 ft | 454 kts | 291° |
| 2026-05-06 03:21 | -22.65757 | -46.84125 | 29206 ft | 455 kts | 291° |
| 2026-05-06 03:21 | -22.62984 | -46.90281 | 29208 ft | 455 kts | 291° |
| 2026-05-06 03:22 | -22.60198 | -46.96430 | 29202 ft | 455 kts | 291° |
| 2026-05-06 03:22 | -22.57418 | -47.02578 | 29197 ft | 454 kts | 291° |
| 2026-05-06 03:23 | -22.54861 | -47.08797 | 29193 ft | 448 kts | 282° |
| 2026-05-06 03:23 | -22.53258 | -47.15289 | 29181 ft | 446 kts | 280° |
| 2026-05-06 03:24 | -22.51647 | -47.21772 | 29184 ft | 447 kts | 280° |
| 2026-05-06 03:24 | -22.50027 | -47.28252 | 29188 ft | 446 kts | 281° |
| 2026-05-06 03:25 | -22.48406 | -47.34723 | 29183 ft | 446 kts | 280° |
| 2026-05-06 03:25 | -22.46798 | -47.41149 | 29186 ft | 445 kts | 281° |
| 2026-05-06 03:26 | -22.45164 | -47.47651 | 29188 ft | 446 kts | 282° |
| 2026-05-06 03:26 | -22.43952 | -47.50708 | 29184 ft | 454 kts | 295° |
| 2026-05-06 03:26 | -22.42041 | -47.53457 | 29185 ft | 463 kts | 309° |
| 2026-05-06 03:27 | -22.39515 | -47.55665 | 29176 ft | 473 kts | 324° |
| 2026-05-06 03:27 | -22.36512 | -47.57165 | 29173 ft | 481 kts | 339° |
| 2026-05-06 03:27 | -22.29895 | -47.58467 | 28986 ft | 478 kts | 347° |
| 2026-05-06 03:28 | -22.26643 | -47.59001 | 28727 ft | 467 kts | 348° |
| 2026-05-06 03:28 | -22.23455 | -47.59521 | 28462 ft | 461 kts | 348° |
| 2026-05-06 03:28 | -22.20309 | -47.60039 | 28102 ft | 455 kts | 347° |
| 2026-05-06 03:28 | -22.17187 | -47.60561 | 27493 ft | 453 kts | 348° |
| 2026-05-06 03:29 | -22.14084 | -47.61084 | 26913 ft | 450 kts | 348° |
| 2026-05-06 03:29 | -22.11003 | -47.61604 | 26339 ft | 447 kts | 348° |
| 2026-05-06 03:29 | -22.07940 | -47.62120 | 25772 ft | 444 kts | 348° |
| 2026-05-06 03:29 | -22.04899 | -47.62631 | 25222 ft | 441 kts | 348° |
| 2026-05-06 03:30 | -22.01880 | -47.63138 | 24681 ft | 437 kts | 349° |
| 2026-05-06 03:30 | -21.98887 | -47.63641 | 24159 ft | 433 kts | 349° |
| 2026-05-06 03:30 | -21.95918 | -47.64138 | 23626 ft | 430 kts | 349° |
| 2026-05-06 03:30 | -21.92974 | -47.64629 | 23093 ft | 426 kts | 349° |
| 2026-05-06 03:31 | -21.90061 | -47.65114 | 22600 ft | 421 kts | 349° |
| 2026-05-06 03:31 | -21.87176 | -47.65597 | 22085 ft | 418 kts | 350° |
| 2026-05-06 03:31 | -21.84313 | -47.66075 | 21587 ft | 415 kts | 350° |
| 2026-05-06 03:31 | -21.81469 | -47.66548 | 21062 ft | 412 kts | 350° |
| 2026-05-06 03:32 | -21.78648 | -47.67019 | 20544 ft | 409 kts | 350° |
| 2026-05-06 03:32 | -21.75845 | -47.67488 | 20003 ft | 407 kts | 350° |
| 2026-05-06 03:32 | -21.73059 | -47.67954 | 19468 ft | 404 kts | 351° |
| 2026-05-06 03:32 | -21.70283 | -47.68416 | 18924 ft | 403 kts | 351° |
| 2026-05-06 03:33 | -21.67520 | -47.68874 | 18348 ft | 401 kts | 351° |
| 2026-05-06 03:33 | -21.64775 | -47.69328 | 17757 ft | 398 kts | 351° |
| 2026-05-06 03:33 | -21.62054 | -47.69779 | 17224 ft | 393 kts | 351° |
| 2026-05-06 03:33 | -21.59415 | -47.70461 | 16690 ft | 388 kts | 340° |
| 2026-05-06 03:34 | -21.56880 | -47.71424 | 16159 ft | 384 kts | 340° |
| 2026-05-06 03:34 | -21.54374 | -47.72376 | 15632 ft | 381 kts | 340° |
| 2026-05-06 03:34 | -21.51883 | -47.73319 | 15099 ft | 378 kts | 340° |
| 2026-05-06 03:34 | -21.49415 | -47.74248 | 14575 ft | 374 kts | 340° |
| 2026-05-06 03:35 | -21.46965 | -47.75170 | 14050 ft | 372 kts | 340° |
| 2026-05-06 03:35 | -21.44533 | -47.76086 | 13483 ft | 369 kts | 340° |
| 2026-05-06 03:35 | -21.42130 | -47.76993 | 12963 ft | 364 kts | 341° |
| 2026-05-06 03:35 | -21.39753 | -47.77886 | 12452 ft | 360 kts | 341° |
| 2026-05-06 03:36 | -21.37436 | -47.78758 | 11948 ft | 356 kts | 342° |
| 2026-05-06 03:36 | -21.35113 | -47.79633 | 11448 ft | 352 kts | 342° |
| 2026-05-06 03:36 | -21.32815 | -47.80500 | 10947 ft | 348 kts | 342° |
| 2026-05-06 03:36 | -21.30544 | -47.81356 | 10527 ft | 339 kts | 343° |
| 2026-05-06 03:37 | -21.28389 | -47.82169 | 10411 ft | 318 kts | 343° |
| 2026-05-06 03:37 | -21.26352 | -47.82936 | 10190 ft | 306 kts | 344° |
| 2026-05-06 03:37 | -21.24358 | -47.83684 | 9938 ft | 301 kts | 344° |
| 2026-05-06 03:37 | -21.22394 | -47.84418 | 9759 ft | 299 kts | 344° |
| 2026-05-06 03:38 | -21.20437 | -47.85151 | 9369 ft | 298 kts | 344° |
| 2026-05-06 03:38 | -21.18483 | -47.85886 | 8968 ft | 298 kts | 343° |
| 2026-05-06 03:38 | -21.16530 | -47.86621 | 8555 ft | 298 kts | 343° |
| 2026-05-06 03:38 | -21.14577 | -47.87355 | 8196 ft | 296 kts | 343° |
| 2026-05-06 03:39 | -21.12632 | -47.88082 | 7806 ft | 296 kts | 343° |
| 2026-05-06 03:39 | -21.10717 | -47.88799 | 7599 ft | 284 kts | 343° |
| 2026-05-06 03:39 | -21.08911 | -47.89481 | 7484 ft | 266 kts | 343° |
| 2026-05-06 03:39 | -21.07180 | -47.90134 | 7031 ft | 265 kts | 343° |
| 2026-05-06 03:40 | -21.05457 | -47.90781 | 6649 ft | 260 kts | 343° |
| 2026-05-06 03:40 | -21.03768 | -47.91416 | 6258 ft | 254 kts | 343° |
| 2026-05-06 03:40 | -21.02081 | -47.91787 | 5865 ft | 243 kts | 5° |
| 2026-05-06 03:40 | -21.00468 | -47.91401 | 5500 ft | 236 kts | 28° |
| 2026-05-06 03:41 | -20.99181 | -47.90370 | 5146 ft | 230 kts | 51° |
| 2026-05-06 03:41 | -20.98393 | -47.88908 | 4780 ft | 226 kts | 72° |
| 2026-05-06 03:41 | -20.97951 | -47.87311 | 4488 ft | 221 kts | 73° |
| 2026-05-06 03:41 | -20.97514 | -47.85751 | 4210 ft | 216 kts | 73° |
| 2026-05-06 03:42 | -20.97374 | -47.84212 | 3981 ft | 209 kts | 99° |
| 2026-05-06 03:42 | -20.97981 | -47.82833 | 3892 ft | 201 kts | 128° |
| 2026-05-06 03:42 | -20.99084 | -47.82007 | 3845 ft | 198 kts | 154° |
| 2026-05-06 03:42 | -21.00396 | -47.81564 | 3725 ft | 196 kts | 159° |
| 2026-05-06 03:43 | -21.01697 | -47.81148 | 3623 ft | 195 kts | 159° |
| 2026-05-06 03:43 | -21.02998 | -47.80733 | 3532 ft | 195 kts | 159° |
| 2026-05-06 03:43 | -21.04241 | -47.80345 | 3405 ft | 176 kts | 160° |
| 2026-05-06 03:43 | -21.05351 | -47.80019 | 3323 ft | 157 kts | 159° |
| 2026-05-06 03:44 | -21.06363 | -47.79714 | 3121 ft | 148 kts | 159° |
| 2026-05-06 03:44 | -21.07343 | -47.79391 | 2915 ft | 147 kts | 158° |
| 2026-05-06 03:44 | -21.08310 | -47.79058 | 2723 ft | 145 kts | 159° |
| 2026-05-06 03:44 | -21.09267 | -47.78737 | 2538 ft | 143 kts | 162° |
| 2026-05-06 03:45 | -21.10211 | -47.78434 | 2342 ft | 141 kts | 162° |
| 2026-05-06 03:45 | -21.11143 | -47.78136 | 2160 ft | 139 kts | 162° |
| 2026-05-06 03:45 | -21.12065 | -47.77842 | 1996 ft | 136 kts | 162° |
| 2026-05-06 03:45 | -21.12964 | -47.77553 | 1834 ft | 131 kts | 161° |
| 2026-05-06 03:46 | -21.13703 | -47.77314 | 1827 ft | 87 kts | 163° |
| 2026-05-06 03:46 | -21.14101 | -47.77186 | 1827 ft | 33 kts | 163° |
| 2026-05-06 03:46 | -21.14260 | -47.77137 | 1826 ft | 14 kts | 165° |
| 2026-05-06 03:46 | -21.14309 | -47.77155 | 1826 ft | 6 kts | 263° |
| 2026-05-06 03:47 | -21.14296 | -47.77206 | 1826 ft | 8 kts | 285° |
| 2026-05-06 03:47 | -21.14282 | -47.77266 | 1827 ft | 9 kts | 284° |
| 2026-05-06 03:47 | -21.14240 | -47.77318 | 1827 ft | 10 kts | 338° |
| 2026-05-06 03:47 | -21.14164 | -47.77343 | 1827 ft | 13 kts | 342° |
| 2026-05-06 03:48 | -21.14074 | -47.77373 | 1827 ft | 15 kts | 343° |
| 2026-05-06 03:48 | -21.13976 | -47.77404 | 1827 ft | 14 kts | 343° |
| 2026-05-06 03:48 | -21.13887 | -47.77432 | 1827 ft | 11 kts | 343° |
| 2026-05-06 03:48 | -21.13850 | -47.77462 | 1826 ft | 5 kts | 281° |
| 2026-05-06 03:49 | -21.13858 | -47.77494 | 1826 ft | 5 kts | 252° |
| 2026-05-06 03:49 | -21.13869 | -47.77531 | 1826 ft | 5 kts | 251° |
| 2026-05-06 03:49 | -21.13897 | -47.77547 | 1827 ft | 4 kts | 186° |
| 2026-05-06 03:49 | -21.13909 | -47.77559 | 1827 ft | 2 kts | 244° |
| 2026-05-06 03:50 | -21.13913 | -47.77575 | 1827 ft | 2 kts | 253° |
| 2026-05-06 03:50 | -21.13916 | -47.77585 | 1827 ft | 1 kts | 253° |
| 2026-05-06 03:50 | -21.13918 | -47.77592 | 1827 ft | 1 kts | 254° |
| 2026-05-06 03:50 | -21.13918 | -47.77593 | 1827 ft | 0 kts | 254° |